sensor_id;sensor_type;location;lat;lon;timestamp;pressure;altitude;pressure_sealevel;temperature;humidity
13867;BME280;7003;46.982;15.248;2023-04-02T00:00:16;96295.22;;;7.05;100.00
13867;BME280;7003;46.982;15.248;2023-04-02T00:02:54;96294.34;;;7.01;100.00
13867;BME280;7003;46.982;15.248;2023-04-02T00:05:36;96292.16;;;7.03;100.00
13867;BME280;7003;46.982;15.248;2023-04-02T00:08:21;96292.84;;;6.91;100.00
13867;BME280;7003;46.982;15.248;2023-04-02T00:10:50;96292.31;;;6.98;100.00
13867;BME280;7003;46.982;15.248;2023-04-02T00:13:30;96287.75;;;7.07;100.00
13867;BME280;7003;46.982;15.248;2023-04-02T00:15:59;96294.84;;;7.15;100.00
13867;BME280;7003;46.982;15.248;2023-04-02T00:18:29;96288.13;;;6.97;100.00
13867;BME280;7003;46.982;15.248;2023-04-02T00:21:05;96291.81;;;7.05;100.00
13867;BME280;7003;46.982;15.248;2023-04-02T00:23:38;96291.69;;;7.01;100.00
13867;BME280;7003;46.982;15.248;2023-04-02T00:26:19;96292.47;;;7.02;100.00
13867;BME280;7003;46.982;15.248;2023-04-02T00:28:48;96296.16;;;7.09;100.00
13867;BME280;7003;46.982;15.248;2023-04-02T00:31:17;96292.53;;;6.93;100.00
13867;BME280;7003;46.982;15.248;2023-04-02T00:33:48;96289.69;;;6.77;100.00
13867;BME280;7003;46.982;15.248;2023-04-02T00:36:18;96294.53;;;6.67;100.00
13867;BME280;7003;46.982;15.248;2023-04-02T00:38:49;96290.97;;;6.71;100.00
13867;BME280;7003;46.982;15.248;2023-04-02T00:41:22;96291.69;;;6.51;100.00
13867;BME280;7003;46.982;15.248;2023-04-02T00:43:54;96291.56;;;6.47;100.00
13867;BME280;7003;46.982;15.248;2023-04-02T00:46:28;96291.31;;;6.32;100.00
13867;BME280;7003;46.982;15.248;2023-04-02T00:49:00;96291.78;;;6.34;100.00
13867;BME280;7003;46.982;15.248;2023-04-02T00:51:34;96282.13;;;6.38;100.00
13867;BME280;7003;46.982;15.248;2023-04-02T00:54:08;96292.69;;;6.38;100.00
13867;BME280;7003;46.982;15.248;2023-04-02T00:56:42;96289.53;;;6.44;100.00
13867;BME280;7003;46.982;15.248;2023-04-02T00:59:19;96285.84;;;6.37;100.00
13867;BME280;7003;46.982;15.248;2023-04-02T01:01:52;96283.97;;;6.37;100.00
13867;BME280;7003;46.982;15.248;2023-04-02T01:04:40;96283.25;;;6.28;100.00
13867;BME280;7003;46.982;15.248;2023-04-02T01:07:16;96278.94;;;6.24;100.00
13867;BME280;7003;46.982;15.248;2023-04-02T01:10:05;96274.91;;;6.17;100.00
13867;BME280;7003;46.982;15.248;2023-04-02T01:12:47;96274.94;;;6.09;100.00
13867;BME280;7003;46.982;15.248;2023-04-02T01:15:18;96280.16;;;6.26;100.00
13867;BME280;7003;46.982;15.248;2023-04-02T01:18:01;96277.69;;;6.21;100.00
13867;BME280;7003;46.982;15.248;2023-04-02T01:20:54;96281.25;;;6.25;100.00
13867;BME280;7003;46.982;15.248;2023-04-02T01:23:33;96278.84;;;6.11;100.00
13867;BME280;7003;46.982;15.248;2023-04-02T01:26:11;96282.22;;;6.12;100.00
13867;BME280;7003;46.982;15.248;2023-04-02T01:28:54;96280.19;;;6.17;100.00
13867;BME280;7003;46.982;15.248;2023-04-02T01:31:26;96290.47;;;6.10;100.00
13867;BME280;7003;46.982;15.248;2023-04-02T01:33:54;96290.97;;;6.04;100.00
13867;BME280;7003;46.982;15.248;2023-04-02T01:36:30;96293.75;;;5.99;100.00
13867;BME280;7003;46.982;15.248;2023-04-02T01:39:08;96284.75;;;6.00;100.00
13867;BME280;7003;46.982;15.248;2023-04-02T01:41:42;96295.47;;;6.03;100.00
13867;BME280;7003;46.982;15.248;2023-04-02T01:44:21;96285.22;;;6.02;100.00
13867;BME280;7003;46.982;15.248;2023-04-02T01:46:51;96292.84;;;6.03;100.00
13867;BME280;7003;46.982;15.248;2023-04-02T01:49:21;96293.47;;;6.00;100.00
13867;BME280;7003;46.982;15.248;2023-04-02T01:51:53;96293.00;;;5.98;100.00
13867;BME280;7003;46.982;15.248;2023-04-02T01:54:22;96284.66;;;5.88;100.00
13867;BME280;7003;46.982;15.248;2023-04-02T01:56:54;96293.78;;;5.81;100.00
13867;BME280;7003;46.982;15.248;2023-04-02T01:59:23;96292.72;;;5.74;100.00
13867;BME280;7003;46.982;15.248;2023-04-02T02:02:14;96292.09;;;5.68;100.00
13867;BME280;7003;46.982;15.248;2023-04-02T02:04:43;96297.88;;;5.62;100.00
13867;BME280;7003;46.982;15.248;2023-04-02T02:07:13;96298.94;;;5.69;100.00
13867;BME280;7003;46.982;15.248;2023-04-02T02:09:42;96300.97;;;5.64;100.00
13867;BME280;7003;46.982;15.248;2023-04-02T02:12:12;96302.38;;;5.61;100.00
13867;BME280;7003;46.982;15.248;2023-04-02T02:14:51;96306.38;;;5.67;100.00
13867;BME280;7003;46.982;15.248;2023-04-02T02:17:23;96302.19;;;5.58;100.00
13867;BME280;7003;46.982;15.248;2023-04-02T02:19:55;96308.72;;;5.52;100.00
13867;BME280;7003;46.982;15.248;2023-04-02T02:22:27;96305.31;;;5.51;100.00
13867;BME280;7003;46.982;15.248;2023-04-02T02:24:57;96308.41;;;5.62;100.00
13867;BME280;7003;46.982;15.248;2023-04-02T02:27:49;96305.00;;;5.53;100.00
13867;BME280;7003;46.982;15.248;2023-04-02T02:30:23;96308.72;;;5.43;100.00
13867;BME280;7003;46.982;15.248;2023-04-02T02:32:56;96309.03;;;5.50;100.00
13867;BME280;7003;46.982;15.248;2023-04-02T02:35:28;96314.00;;;5.43;100.00
13867;BME280;7003;46.982;15.248;2023-04-02T02:38:01;96317.13;;;5.36;100.00
13867;BME280;7003;46.982;15.248;2023-04-02T02:40:39;96319.28;;;5.43;100.00
13867;BME280;7003;46.982;15.248;2023-04-02T02:43:13;96318.84;;;5.32;100.00
13867;BME280;7003;46.982;15.248;2023-04-02T02:45:47;96312.78;;;5.40;100.00
13867;BME280;7003;46.982;15.248;2023-04-02T02:48:33;96322.56;;;5.31;100.00
13867;BME280;7003;46.982;15.248;2023-04-02T02:51:06;96318.53;;;5.08;100.00
13867;BME280;7003;46.982;15.248;2023-04-02T02:53:45;96323.94;;;5.20;100.00
13867;BME280;7003;46.982;15.248;2023-04-02T02:56:14;96321.00;;;5.30;100.00
13867;BME280;7003;46.982;15.248;2023-04-02T02:58:42;96331.38;;;5.27;100.00
13867;BME280;7003;46.982;15.248;2023-04-02T03:01:11;96325.81;;;5.28;100.00
13867;BME280;7003;46.982;15.248;2023-04-02T03:03:38;96326.56;;;4.94;100.00
13867;BME280;7003;46.982;15.248;2023-04-02T03:06:08;96323.78;;;4.99;100.00
13867;BME280;7003;46.982;15.248;2023-04-02T03:08:39;96335.84;;;4.83;100.00
13867;BME280;7003;46.982;15.248;2023-04-02T03:11:13;96331.06;;;4.85;100.00
13867;BME280;7003;46.982;15.248;2023-04-02T03:13:48;96334.59;;;4.89;100.00
13867;BME280;7003;46.982;15.248;2023-04-02T03:16:25;96330.25;;;4.76;100.00
13867;BME280;7003;46.982;15.248;2023-04-02T03:18:57;96339.44;;;4.87;100.00
13867;BME280;7003;46.982;15.248;2023-04-02T03:21:35;96338.19;;;4.85;100.00
13867;BME280;7003;46.982;15.248;2023-04-02T03:24:19;96343.56;;;4.71;100.00
13867;BME280;7003;46.982;15.248;2023-04-02T03:26:52;96336.28;;;4.68;100.00
13867;BME280;7003;46.982;15.248;2023-04-02T03:29:25;96345.56;;;4.65;100.00
13867;BME280;7003;46.982;15.248;2023-04-02T03:31:59;96343.69;;;4.66;100.00
13867;BME280;7003;46.982;15.248;2023-04-02T03:34:35;96349.16;;;4.78;100.00
13867;BME280;7003;46.982;15.248;2023-04-02T03:37:07;96352.88;;;4.77;100.00
13867;BME280;7003;46.982;15.248;2023-04-02T03:39:41;96352.72;;;4.74;100.00
13867;BME280;7003;46.982;15.248;2023-04-02T03:42:15;96356.28;;;4.69;100.00
13867;BME280;7003;46.982;15.248;2023-04-02T03:44:48;96360.94;;;4.72;100.00
13867;BME280;7003;46.982;15.248;2023-04-02T03:47:23;96363.06;;;4.61;100.00
13867;BME280;7003;46.982;15.248;2023-04-02T03:49:59;96362.09;;;4.57;100.00
13867;BME280;7003;46.982;15.248;2023-04-02T03:52:29;96367.06;;;4.59;100.00
13867;BME280;7003;46.982;15.248;2023-04-02T03:54:58;96375.16;;;4.62;100.00
13867;BME280;7003;46.982;15.248;2023-04-02T03:57:32;96367.97;;;4.46;100.00
13867;BME280;7003;46.982;15.248;2023-04-02T04:00:07;96374.59;;;4.43;100.00
13867;BME280;7003;46.982;15.248;2023-04-02T04:02:46;96367.16;;;4.37;100.00
13867;BME280;7003;46.982;15.248;2023-04-02T04:05:21;96374.94;;;4.50;100.00
13867;BME280;7003;46.982;15.248;2023-04-02T04:07:52;96372.75;;;4.44;100.00
13867;BME280;7003;46.982;15.248;2023-04-02T04:10:23;96382.41;;;4.57;100.00
13867;BME280;7003;46.982;15.248;2023-04-02T04:12:54;96384.03;;;4.36;100.00
13867;BME280;7003;46.982;15.248;2023-04-02T04:15:26;96392.34;;;4.29;100.00
13867;BME280;7003;46.982;15.248;2023-04-02T04:18:01;96392.06;;;4.31;100.00
13867;BME280;7003;46.982;15.248;2023-04-02T04:20:34;96394.22;;;4.29;100.00
13867;BME280;7003;46.982;15.248;2023-04-02T04:23:13;96395.66;;;4.12;100.00
13867;BME280;7003;46.982;15.248;2023-04-02T04:25:45;96402.34;;;4.18;100.00
13867;BME280;7003;46.982;15.248;2023-04-02T04:28:20;96403.03;;;4.24;100.00
13867;BME280;7003;46.982;15.248;2023-04-02T04:30:57;96389.56;;;4.25;100.00
13867;BME280;7003;46.982;15.248;2023-04-02T04:33:42;96403.63;;;4.52;100.00
13867;BME280;7003;46.982;15.248;2023-04-02T04:36:23;96404.72;;;4.59;100.00
13867;BME280;7003;46.982;15.248;2023-04-02T04:38:56;96404.97;;;4.49;100.00
13867;BME280;7003;46.982;15.248;2023-04-02T04:41:29;96404.50;;;4.39;100.00
13867;BME280;7003;46.982;15.248;2023-04-02T04:44:05;96406.28;;;4.30;100.00
13867;BME280;7003;46.982;15.248;2023-04-02T04:46:41;96411.50;;;4.21;100.00
13867;BME280;7003;46.982;15.248;2023-04-02T04:49:19;96409.66;;;4.21;100.00
13867;BME280;7003;46.982;15.248;2023-04-02T04:51:53;96409.56;;;4.04;100.00
13867;BME280;7003;46.982;15.248;2023-04-02T04:54:25;96411.31;;;4.09;100.00
13867;BME280;7003;46.982;15.248;2023-04-02T04:57:00;96416.00;;;4.20;100.00
13867;BME280;7003;46.982;15.248;2023-04-02T04:59:34;96413.59;;;4.33;100.00
13867;BME280;7003;46.982;15.248;2023-04-02T05:02:11;96414.59;;;4.45;100.00
13867;BME280;7003;46.982;15.248;2023-04-02T05:04:48;96418.91;;;4.41;100.00
13867;BME280;7003;46.982;15.248;2023-04-02T05:07:20;96416.63;;;4.48;100.00
13867;BME280;7003;46.982;15.248;2023-04-02T05:09:54;96426.88;;;4.58;100.00
13867;BME280;7003;46.982;15.248;2023-04-02T05:12:31;96430.19;;;4.42;100.00
13867;BME280;7003;46.982;15.248;2023-04-02T05:15:09;96436.88;;;4.39;100.00
13867;BME280;7003;46.982;15.248;2023-04-02T05:17:47;96435.47;;;4.42;100.00
13867;BME280;7003;46.982;15.248;2023-04-02T05:20:26;96434.97;;;4.31;100.00
13867;BME280;7003;46.982;15.248;2023-04-02T05:22:59;96440.81;;;4.28;100.00
13867;BME280;7003;46.982;15.248;2023-04-02T05:25:31;96436.03;;;4.30;100.00
13867;BME280;7003;46.982;15.248;2023-04-02T05:28:04;96441.84;;;4.41;100.00
13867;BME280;7003;46.982;15.248;2023-04-02T05:30:45;96442.03;;;4.53;100.00
13867;BME280;7003;46.982;15.248;2023-04-02T05:33:21;96446.28;;;4.62;100.00
13867;BME280;7003;46.982;15.248;2023-04-02T05:35:57;96442.72;;;4.67;100.00
13867;BME280;7003;46.982;15.248;2023-04-02T05:38:33;96444.41;;;4.63;100.00
13867;BME280;7003;46.982;15.248;2023-04-02T05:41:06;96444.13;;;4.73;100.00
13867;BME280;7003;46.982;15.248;2023-04-02T05:43:38;96457.22;;;4.87;100.00
13867;BME280;7003;46.982;15.248;2023-04-02T05:46:17;96451.69;;;4.66;100.00
13867;BME280;7003;46.982;15.248;2023-04-02T05:48:51;96453.88;;;4.73;100.00
13867;BME280;7003;46.982;15.248;2023-04-02T05:51:29;96456.19;;;4.65;100.00
13867;BME280;7003;46.982;15.248;2023-04-02T05:54:04;96450.97;;;4.74;100.00
13867;BME280;7003;46.982;15.248;2023-04-02T05:56:37;96449.97;;;4.92;100.00
13867;BME280;7003;46.982;15.248;2023-04-02T05:59:13;96445.94;;;5.03;100.00
13867;BME280;7003;46.982;15.248;2023-04-02T06:01:44;96452.94;;;4.99;100.00
13867;BME280;7003;46.982;15.248;2023-04-02T06:04:19;96450.03;;;5.10;100.00
13867;BME280;7003;46.982;15.248;2023-04-02T06:06:57;96455.13;;;5.15;100.00
13867;BME280;7003;46.982;15.248;2023-04-02T06:09:33;96459.69;;;5.40;100.00
13867;BME280;7003;46.982;15.248;2023-04-02T06:12:12;96455.00;;;5.28;100.00
13867;BME280;7003;46.982;15.248;2023-04-02T06:14:42;96464.81;;;5.45;100.00
13867;BME280;7003;46.982;15.248;2023-04-02T06:17:12;96465.44;;;5.51;100.00
13867;BME280;7003;46.982;15.248;2023-04-02T06:19:44;96462.50;;;5.52;100.00
13867;BME280;7003;46.982;15.248;2023-04-02T06:22:23;96460.66;;;5.61;100.00
13867;BME280;7003;46.982;15.248;2023-04-02T06:24:54;96464.56;;;5.72;100.00
13867;BME280;7003;46.982;15.248;2023-04-02T06:27:25;96456.97;;;5.88;100.00
13867;BME280;7003;46.982;15.248;2023-04-02T06:29:58;96468.59;;;6.04;100.00
13867;BME280;7003;46.982;15.248;2023-04-02T06:32:30;96465.47;;;6.19;100.00
13867;BME280;7003;46.982;15.248;2023-04-02T06:34:58;96477.75;;;6.24;100.00
13867;BME280;7003;46.982;15.248;2023-04-02T06:37:30;96475.59;;;6.26;100.00
13867;BME280;7003;46.982;15.248;2023-04-02T06:40:03;96477.09;;;6.36;100.00
13867;BME280;7003;46.982;15.248;2023-04-02T06:42:36;96489.41;;;6.40;100.00
13867;BME280;7003;46.982;15.248;2023-04-02T06:45:15;96492.63;;;6.54;100.00
13867;BME280;7003;46.982;15.248;2023-04-02T06:47:48;96489.03;;;6.59;100.00
13867;BME280;7003;46.982;15.248;2023-04-02T06:50:20;96495.38;;;6.67;100.00
13867;BME280;7003;46.982;15.248;2023-04-02T06:52:54;96505.78;;;6.80;100.00
13867;BME280;7003;46.982;15.248;2023-04-02T06:55:30;96503.56;;;6.91;100.00
13867;BME280;7003;46.982;15.248;2023-04-02T06:57:59;96511.09;;;6.72;100.00
13867;BME280;7003;46.982;15.248;2023-04-02T07:00:32;96517.13;;;6.81;100.00
13867;BME280;7003;46.982;15.248;2023-04-02T07:03:06;96512.44;;;6.95;100.00
13867;BME280;7003;46.982;15.248;2023-04-02T07:05:37;96515.81;;;7.04;100.00
13867;BME280;7003;46.982;15.248;2023-04-02T07:08:06;96512.81;;;7.14;100.00
13867;BME280;7003;46.982;15.248;2023-04-02T07:10:35;96523.78;;;7.33;100.00
13867;BME280;7003;46.982;15.248;2023-04-02T07:13:08;96514.09;;;7.38;100.00
13867;BME280;7003;46.982;15.248;2023-04-02T07:15:40;96526.84;;;7.73;100.00
13867;BME280;7003;46.982;15.248;2023-04-02T07:18:15;96517.19;;;7.69;100.00
13867;BME280;7003;46.982;15.248;2023-04-02T07:20:51;96522.75;;;7.76;100.00
13867;BME280;7003;46.982;15.248;2023-04-02T07:23:20;96515.00;;;7.71;100.00
13867;BME280;7003;46.982;15.248;2023-04-02T07:25:51;96519.00;;;7.77;100.00
13867;BME280;7003;46.982;15.248;2023-04-02T07:28:20;96525.75;;;7.95;100.00
13867;BME280;7003;46.982;15.248;2023-04-02T07:30:48;96524.97;;;8.16;100.00
13867;BME280;7003;46.982;15.248;2023-04-02T07:33:21;96531.72;;;8.34;100.00
13867;BME280;7003;46.982;15.248;2023-04-02T07:35:51;96527.88;;;8.23;100.00
13867;BME280;7003;46.982;15.248;2023-04-02T07:38:24;96528.63;;;8.32;100.00
13867;BME280;7003;46.982;15.248;2023-04-02T07:40:51;96533.22;;;8.43;100.00
13867;BME280;7003;46.982;15.248;2023-04-02T07:43:19;96528.94;;;8.51;100.00
13867;BME280;7003;46.982;15.248;2023-04-02T07:45:49;96533.16;;;8.64;100.00
13867;BME280;7003;46.982;15.248;2023-04-02T07:48:17;96530.53;;;8.76;100.00
13867;BME280;7003;46.982;15.248;2023-04-02T07:50:47;96540.81;;;8.78;100.00
13867;BME280;7003;46.982;15.248;2023-04-02T07:53:27;96544.03;;;8.83;100.00
13867;BME280;7003;46.982;15.248;2023-04-02T07:56:00;96544.72;;;8.93;100.00
13867;BME280;7003;46.982;15.248;2023-04-02T07:58:29;96547.59;;;8.87;100.00
13867;BME280;7003;46.982;15.248;2023-04-02T08:00:58;96549.47;;;8.87;100.00
13867;BME280;7003;46.982;15.248;2023-04-02T08:03:27;96554.38;;;8.97;100.00
13867;BME280;7003;46.982;15.248;2023-04-02T08:05:57;96548.50;;;9.04;100.00
13867;BME280;7003;46.982;15.248;2023-04-02T08:08:27;96548.53;;;9.16;100.00
13867;BME280;7003;46.982;15.248;2023-04-02T08:10:55;96552.41;;;9.31;100.00
13867;BME280;7003;46.982;15.248;2023-04-02T08:13:25;96546.66;;;9.53;100.00
13867;BME280;7003;46.982;15.248;2023-04-02T08:15:57;96546.81;;;9.44;100.00
13867;BME280;7003;46.982;15.248;2023-04-02T08:18:26;96548.09;;;9.38;100.00
13867;BME280;7003;46.982;15.248;2023-04-02T08:20:57;96547.66;;;9.60;100.00
13867;BME280;7003;46.982;15.248;2023-04-02T08:23:28;96547.03;;;9.51;100.00
13867;BME280;7003;46.982;15.248;2023-04-02T08:25:58;96549.44;;;9.56;100.00
13867;BME280;7003;46.982;15.248;2023-04-02T08:28:26;96554.88;;;9.72;100.00
13867;BME280;7003;46.982;15.248;2023-04-02T08:30:57;96555.72;;;9.76;100.00
13867;BME280;7003;46.982;15.248;2023-04-02T08:33:26;96556.97;;;9.91;100.00
13867;BME280;7003;46.982;15.248;2023-04-02T08:35:54;96555.25;;;10.11;100.00
13867;BME280;7003;46.982;15.248;2023-04-02T08:38:23;96550.28;;;10.21;100.00
13867;BME280;7003;46.982;15.248;2023-04-02T08:40:55;96551.25;;;10.17;100.00
13867;BME280;7003;46.982;15.248;2023-04-02T08:43:43;96554.44;;;10.34;100.00
13867;BME280;7003;46.982;15.248;2023-04-02T08:46:20;96553.53;;;10.43;100.00
13867;BME280;7003;46.982;15.248;2023-04-02T08:48:52;96554.19;;;10.52;100.00
13867;BME280;7003;46.982;15.248;2023-04-02T08:51:24;96556.09;;;10.67;100.00
13867;BME280;7003;46.982;15.248;2023-04-02T08:53:56;96557.16;;;10.78;100.00
13867;BME280;7003;46.982;15.248;2023-04-02T08:56:31;96557.88;;;10.91;100.00
13867;BME280;7003;46.982;15.248;2023-04-02T08:59:09;96554.63;;;10.97;100.00
13867;BME280;7003;46.982;15.248;2023-04-02T09:01:47;96558.41;;;10.96;100.00
13867;BME280;7003;46.982;15.248;2023-04-02T09:04:20;96564.97;;;11.14;100.00
13867;BME280;7003;46.982;15.248;2023-04-02T09:06:52;96556.38;;;11.37;100.00
13867;BME280;7003;46.982;15.248;2023-04-02T09:09:21;96563.44;;;11.45;100.00
13867;BME280;7003;46.982;15.248;2023-04-02T09:11:53;96563.50;;;11.64;100.00
13867;BME280;7003;46.982;15.248;2023-04-02T09:14:32;96566.16;;;11.33;100.00
13867;BME280;7003;46.982;15.248;2023-04-02T09:17:13;96572.75;;;11.23;100.00
13867;BME280;7003;46.982;15.248;2023-04-02T09:19:49;96572.75;;;11.23;100.00
13867;BME280;7003;46.982;15.248;2023-04-02T09:22:19;96574.47;;;11.63;100.00
13867;BME280;7003;46.982;15.248;2023-04-02T09:24:51;96571.91;;;11.66;100.00
13867;BME280;7003;46.982;15.248;2023-04-02T09:27:25;96568.00;;;11.76;100.00
13867;BME280;7003;46.982;15.248;2023-04-02T09:29:55;96578.88;;;11.71;100.00
13867;BME280;7003;46.982;15.248;2023-04-02T09:32:44;96577.53;;;11.45;100.00
13867;BME280;7003;46.982;15.248;2023-04-02T09:35:16;96572.34;;;11.37;100.00
13867;BME280;7003;46.982;15.248;2023-04-02T09:37:44;96568.63;;;11.73;100.00
13867;BME280;7003;46.982;15.248;2023-04-02T09:40:23;96572.38;;;11.84;100.00
13867;BME280;7003;46.982;15.248;2023-04-02T09:43:09;96566.19;;;12.15;100.00
13867;BME280;7003;46.982;15.248;2023-04-02T09:45:41;96574.91;;;12.50;100.00
13867;BME280;7003;46.982;15.248;2023-04-02T09:48:24;96573.47;;;12.18;100.00
13867;BME280;7003;46.982;15.248;2023-04-02T09:51:09;96577.78;;;12.42;100.00
13867;BME280;7003;46.982;15.248;2023-04-02T09:53:39;96574.09;;;12.46;100.00
13867;BME280;7003;46.982;15.248;2023-04-02T09:56:09;96578.78;;;12.91;100.00
13867;BME280;7003;46.982;15.248;2023-04-02T09:58:41;96568.63;;;13.42;100.00
13867;BME280;7003;46.982;15.248;2023-04-02T10:01:26;96576.47;;;13.55;100.00
13867;BME280;7003;46.982;15.248;2023-04-02T10:03:54;96572.19;;;13.99;100.00
13867;BME280;7003;46.982;15.248;2023-04-02T10:06:25;96570.66;;;13.98;100.00
13867;BME280;7003;46.982;15.248;2023-04-02T10:08:54;96568.63;;;14.44;100.00
13867;BME280;7003;46.982;15.248;2023-04-02T10:11:28;96574.97;;;14.62;100.00
13867;BME280;7003;46.982;15.248;2023-04-02T10:14:01;96569.50;;;14.85;100.00
13867;BME280;7003;46.982;15.248;2023-04-02T10:16:32;96567.19;;;14.87;96.27
13867;BME280;7003;46.982;15.248;2023-04-02T10:19:11;96569.22;;;14.64;88.63
13867;BME280;7003;46.982;15.248;2023-04-02T10:21:43;96565.88;;;14.71;83.08
13867;BME280;7003;46.982;15.248;2023-04-02T10:24:15;96565.94;;;14.18;90.35
13867;BME280;7003;46.982;15.248;2023-04-02T10:26:50;96573.38;;;14.58;89.66
13867;BME280;7003;46.982;15.248;2023-04-02T10:29:41;96564.66;;;14.64;86.77
13867;BME280;7003;46.982;15.248;2023-04-02T10:32:15;96563.66;;;14.76;85.38
13867;BME280;7003;46.982;15.248;2023-04-02T10:34:50;96559.84;;;15.14;71.99
13867;BME280;7003;46.982;15.248;2023-04-02T10:40:47;96566.81;;;14.25;67.13
13867;BME280;7003;46.982;15.248;2023-04-02T10:46:19;96566.75;;;14.48;67.01
13867;BME280;7003;46.982;15.248;2023-04-02T10:48:56;96563.53;;;15.02;64.79
13867;BME280;7003;46.982;15.248;2023-04-02T10:51:33;96569.91;;;15.68;68.08
13867;BME280;7003;46.982;15.248;2023-04-02T10:54:19;96562.16;;;16.11;67.55
13867;BME280;7003;46.982;15.248;2023-04-02T10:57:03;96559.28;;;16.51;63.03
13867;BME280;7003;46.982;15.248;2023-04-02T10:59:39;96562.50;;;16.82;61.27
13867;BME280;7003;46.982;15.248;2023-04-02T11:02:38;96568.31;;;17.05;62.94
13867;BME280;7003;46.982;15.248;2023-04-02T11:05:18;96561.72;;;16.74;58.40
13867;BME280;7003;46.982;15.248;2023-04-02T11:07:58;96560.28;;;17.19;63.58
13867;BME280;7003;46.982;15.248;2023-04-02T11:10:30;96560.72;;;17.39;56.94
13867;BME280;7003;46.982;15.248;2023-04-02T11:13:07;96551.72;;;16.68;60.31
13867;BME280;7003;46.982;15.248;2023-04-02T11:15:39;96554.53;;;16.20;64.87
13867;BME280;7003;46.982;15.248;2023-04-02T11:18:21;96563.34;;;16.21;61.25
13867;BME280;7003;46.982;15.248;2023-04-02T11:21:00;96566.56;;;16.47;56.79
13867;BME280;7003;46.982;15.248;2023-04-02T11:23:57;96560.91;;;16.63;59.49
13867;BME280;7003;46.982;15.248;2023-04-02T11:26:38;96558.53;;;16.47;57.40
13867;BME280;7003;46.982;15.248;2023-04-02T11:29:19;96560.59;;;16.82;62.55
13867;BME280;7003;46.982;15.248;2023-04-02T11:31:50;96556.75;;;16.83;61.45
13867;BME280;7003;46.982;15.248;2023-04-02T11:37:45;96561.47;;;17.36;58.83
13867;BME280;7003;46.982;15.248;2023-04-02T11:40:42;96558.81;;;17.82;60.59
13867;BME280;7003;46.982;15.248;2023-04-02T11:43:48;96553.06;;;17.77;59.41
13867;BME280;7003;46.982;15.248;2023-04-02T11:46:42;96556.09;;;17.50;52.28
13867;BME280;7003;46.982;15.248;2023-04-02T11:49:38;96557.97;;;17.07;59.24
13867;BME280;7003;46.982;15.248;2023-04-02T11:52:26;96554.88;;;16.98;56.23
13867;BME280;7003;46.982;15.248;2023-04-02T11:55:24;96557.13;;;16.78;55.32
13867;BME280;7003;46.982;15.248;2023-04-02T11:58:09;96551.88;;;16.27;55.81
13867;BME280;7003;46.982;15.248;2023-04-02T12:01:16;96549.19;;;16.24;61.81
13867;BME280;7003;46.982;15.248;2023-04-02T12:04:16;96558.31;;;16.08;59.02
13867;BME280;7003;46.982;15.248;2023-04-02T12:07:04;96550.63;;;16.07;61.49
13867;BME280;7003;46.982;15.248;2023-04-02T12:09:46;96553.47;;;16.35;61.70
13867;BME280;7003;46.982;15.248;2023-04-02T12:12:25;96555.19;;;16.03;57.76
13867;BME280;7003;46.982;15.248;2023-04-02T12:14:56;96550.75;;;15.66;63.76
13867;BME280;7003;46.982;15.248;2023-04-02T12:17:29;96551.97;;;15.32;68.11
13867;BME280;7003;46.982;15.248;2023-04-02T12:20:16;96558.34;;;15.17;62.29
13867;BME280;7003;46.982;15.248;2023-04-02T12:22:49;96555.28;;;15.18;61.55
13867;BME280;7003;46.982;15.248;2023-04-02T12:25:26;96546.00;;;15.09;59.60
13867;BME280;7003;46.982;15.248;2023-04-02T12:28:14;96554.88;;;15.16;72.74
13867;BME280;7003;46.982;15.248;2023-04-02T12:30:46;96555.34;;;15.25;73.66
13867;BME280;7003;46.982;15.248;2023-04-02T12:33:28;96562.03;;;15.46;70.92
13867;BME280;7003;46.982;15.248;2023-04-02T12:36:00;96562.47;;;15.51;71.00
13867;BME280;7003;46.982;15.248;2023-04-02T12:38:34;96558.88;;;15.81;73.89
13867;BME280;7003;46.982;15.248;2023-04-02T12:41:20;96559.66;;;15.77;65.34
13867;BME280;7003;46.982;15.248;2023-04-02T12:43:57;96548.59;;;15.90;63.63
13867;BME280;7003;46.982;15.248;2023-04-02T12:46:27;96550.31;;;16.19;62.13
13867;BME280;7003;46.982;15.248;2023-04-02T12:49:02;96554.41;;;15.99;59.25
13867;BME280;7003;46.982;15.248;2023-04-02T12:51:37;96555.19;;;16.03;60.85
13867;BME280;7003;46.982;15.248;2023-04-02T12:54:09;96552.88;;;15.98;49.88
13867;BME280;7003;46.982;15.248;2023-04-02T12:56:42;96549.69;;;15.78;58.96
13867;BME280;7003;46.982;15.248;2023-04-02T12:59:26;96545.50;;;15.88;58.78
13867;BME280;7003;46.982;15.248;2023-04-02T13:01:57;96544.69;;;16.45;62.54
13867;BME280;7003;46.982;15.248;2023-04-02T13:04:27;96541.09;;;17.14;60.81
13867;BME280;7003;46.982;15.248;2023-04-02T13:06:56;96544.59;;;17.92;54.13
13867;BME280;7003;46.982;15.248;2023-04-02T13:09:33;96542.63;;;18.07;50.09
13867;BME280;7003;46.982;15.248;2023-04-02T13:12:04;96543.47;;;17.72;46.81
13867;BME280;7003;46.982;15.248;2023-04-02T13:14:33;96538.81;;;17.26;47.46
13867;BME280;7003;46.982;15.248;2023-04-02T13:17:01;96539.09;;;16.72;51.38
13867;BME280;7003;46.982;15.248;2023-04-02T13:19:31;96547.44;;;16.60;54.30
13867;BME280;7003;46.982;15.248;2023-04-02T13:22:02;96548.53;;;16.41;54.74
13867;BME280;7003;46.982;15.248;2023-04-02T13:24:34;96558.22;;;15.94;52.27
13867;BME280;7003;46.982;15.248;2023-04-02T13:27:08;96566.13;;;15.76;56.68
13867;BME280;7003;46.982;15.248;2023-04-02T13:29:37;96564.84;;;15.60;62.74
13867;BME280;7003;46.982;15.248;2023-04-02T13:32:12;96575.97;;;15.21;68.40
13867;BME280;7003;46.982;15.248;2023-04-02T13:34:45;96588.41;;;15.03;70.75
13867;BME280;7003;46.982;15.248;2023-04-02T13:37:14;96584.56;;;14.67;68.10
13867;BME280;7003;46.982;15.248;2023-04-02T13:39:45;96596.50;;;14.73;74.28
13867;BME280;7003;46.982;15.248;2023-04-02T13:42:17;96596.28;;;14.29;72.91
13867;BME280;7003;46.982;15.248;2023-04-02T13:44:46;96608.78;;;13.95;72.75
13867;BME280;7003;46.982;15.248;2023-04-02T13:47:15;96613.72;;;14.19;81.55
13867;BME280;7003;46.982;15.248;2023-04-02T13:49:45;96613.22;;;14.37;85.53